Airfield :
LOGIN :

Register | Disclaimer

   EN    FR    IT 

 










Legend :    VFR   Marginal VFR   IFR   Intensive IFR   Very Intensive IFR
Visi :
Ceiling :
>= 8 km
>= 3000ft
5 to 8 km
1000 to 3000 ft
1500m to 5 km
500 to 1000 ft
800 to 1500m
200 to 500 ft
< 800m
< 200 ft
Symbols :   Thunderstorms  Fog  Heavy snow  Heavy precipitations  Wind > 20 kt
SIGMETs :     Misc.  Thunderstorms  Icing  Turbulence  Mountain Waves  Volcanic Ashes







- Airport Elevation : 364 ft
- IATA code : FRA


EDDF - Frankfurt Int.

CURRENT METAR :
  • 211450Z 12010KT 070V150 CAVOK 24/03 Q1017 NOSIG

EXPIRED METARs :
  • 211420Z 09011KT 040V130 CAVOK 24/03 Q1017 NOSIG
  • 211350Z 08009KT 050V130 CAVOK 24/03 Q1018 NOSIG
  • 211320Z 09011KT 050V130 CAVOK 24/03 Q1018 NOSIG
  • 211250Z 12011KT 090V160 CAVOK 23/02 Q1019 NOSIG
  • 211220Z 09013KT 070V130 CAVOK 23/01 Q1019 NOSIG
  • 211150Z 09011KT 060V120 CAVOK 22/01 Q1020 NOSIG

TAF AMD TAF EDDF
Valid from the 21 at 12:00 until the 22 at 18:00 UTC


211232Z 2112/2218 08010KT CAVOK
BECMG 2115/2117 06004KT
BECMG 2211/2213 15005KT
No reported NOTAMs for that airfield.



MET'MAP, your aeronautical weather chart ! - Copyright ORBIFLY December 2007 - Disclaimer

ORBIFLY MET'MAP TEAM :

Programming & Development : Alexandra Zaïnal
Concept & Development : Baudouin d'Aumeries
Co-Development & Prog : Marc-Olivier Méhu
Technical & hardware support : Manuel Goepfert

Contact : metmap@orbifly.com




SOURCES & CREDITS :

   NOAA